Airfield :
LOGIN :

Register | Disclaimer

   EN    FR    IT 

 










Legend :    VFR   Marginal VFR   IFR   Intensive IFR   Very Intensive IFR
Visi :
Ceiling :
>= 8 km
>= 3000ft
5 to 8 km
1000 to 3000 ft
1500m to 5 km
500 to 1000 ft
800 to 1500m
200 to 500 ft
< 800m
< 200 ft
Symbols :   Thunderstorms  Fog  Heavy snow  Heavy precipitations  Wind > 20 kt
SIGMETs :     Misc.  Thunderstorms  Icing  Turbulence  Mountain Waves  Volcanic Ashes






- Airport Elevation : 17 ft
- IATA code : MPL


LFMT - Montpellier Méditerranée

CURRENT METAR :
  • 280730Z AUTO 03009KT 9999 NSC 12/07 Q1010 NOSIG

EXPIRED METARs :
  • 280700Z AUTO 02009KT 9999 NSC 12/07 Q1010 TEMPO RA
  • 280630Z AUTO 02008KT 9999 NSC 11/07 Q1010 TEMPO RA
  • 280600Z AUTO 03011KT 9999 NSC 11/07 Q1010 TEMPO RA
  • 280530Z AUTO 03009KT 9999 NSC 12/07 Q1010 TEMPO RA
  • 280500Z AUTO 03010KT CAVOK 12/07 Q1010 TEMPO RA

TAF TAF LFMT
Valid from the 28 at 03:00 until the 29 at 03:00 UTC


280200Z 2803/2903 03010KT 9999 SCT045 BKN080 BKN180
TEMPO 2803/2808 RA BKN040 OVC090
PROB40
TEMPO 2813/2818 RA BKN040
BECMG 2818/2820 CAVOK
ATIS : +33 4 67 13 11 70



MET'MAP, your aeronautical weather chart ! - Copyright ORBIFLY December 2007 - Disclaimer

ORBIFLY MET'MAP TEAM :

Programming & Development : Alexandra Zaïnal
Concept & original design : Baudouin d'Aumeries
Assistance for programming : Marc-Olivier Méhu
Technical & hardware support : Manuel Goepfert

Contact : metmap@orbifly.com




SOURCES & CREDITS :

   NOAA